sensor_id;sensor_type;location;lat;lon;timestamp;pressure;altitude;pressure_sealevel;temperature;humidity
51043;BME280;37078;45.806;9.084;2022-09-09T00:00:22;98756.69;;;26.38;55.82
51043;BME280;37078;45.806;9.084;2022-09-09T00:03:11;98749.66;;;26.37;55.90
51043;BME280;37078;45.806;9.084;2022-09-09T00:05:59;98743.03;;;26.38;55.87
51043;BME280;37078;45.806;9.084;2022-09-09T00:08:43;98746.56;;;26.39;55.92
51043;BME280;37078;45.806;9.084;2022-09-09T00:11:12;98737.91;;;26.37;55.70
51043;BME280;37078;45.806;9.084;2022-09-09T00:13:48;98729.13;;;26.31;55.98
51043;BME280;37078;45.806;9.084;2022-09-09T00:16:20;98735.50;;;26.35;56.08
51043;BME280;37078;45.806;9.084;2022-09-09T00:21:52;98739.03;;;26.36;55.88
51043;BME280;37078;45.806;9.084;2022-09-09T00:30:26;98740.19;;;26.35;56.10
51043;BME280;37078;45.806;9.084;2022-09-09T00:32:59;98731.97;;;26.35;55.86
51043;BME280;37078;45.806;9.084;2022-09-09T00:35:29;98728.31;;;26.31;56.03
51043;BME280;37078;45.806;9.084;2022-09-09T00:38:00;98721.75;;;26.32;56.33
51043;BME280;37078;45.806;9.084;2022-09-09T00:40:32;98713.53;;;26.32;56.11
51043;BME280;37078;45.806;9.084;2022-09-09T00:43:26;98700.91;;;26.27;56.03
51043;BME280;37078;45.806;9.084;2022-09-09T00:48:23;98679.84;;;26.28;55.98
51043;BME280;37078;45.806;9.084;2022-09-09T00:51:00;98692.47;;;26.32;55.85
51043;BME280;37078;45.806;9.084;2022-09-09T00:53:59;98661.50;;;26.28;55.74
51043;BME280;37078;45.806;9.084;2022-09-09T00:56:37;98660.72;;;26.28;55.75
51043;BME280;37078;45.806;9.084;2022-09-09T01:01:35;98666.28;;;26.31;55.92
51043;BME280;37078;45.806;9.084;2022-09-09T01:04:05;98657.97;;;26.28;55.82
51043;BME280;37078;45.806;9.084;2022-09-09T01:06:36;98657.28;;;26.31;55.58
51043;BME280;37078;45.806;9.084;2022-09-09T01:17:19;98650.22;;;26.30;55.73
51043;BME280;37078;45.806;9.084;2022-09-09T01:26:08;98664.59;;;26.27;55.77
51043;BME280;37078;45.806;9.084;2022-09-09T01:28:37;98666.97;;;26.28;55.68
51043;BME280;37078;45.806;9.084;2022-09-09T01:31:05;98672.31;;;26.25;55.65
51043;BME280;37078;45.806;9.084;2022-09-09T01:33:31;98675.16;;;26.28;55.71
51043;BME280;37078;45.806;9.084;2022-09-09T01:38:35;98671.16;;;26.26;55.38
51043;BME280;37078;45.806;9.084;2022-09-09T01:41:01;98667.31;;;26.27;55.66
51043;BME280;37078;45.806;9.084;2022-09-09T01:43:27;98663.31;;;26.24;55.67
51043;BME280;37078;45.806;9.084;2022-09-09T01:45:54;98671.66;;;26.28;55.44
51043;BME280;37078;45.806;9.084;2022-09-09T01:48:25;98682.91;;;26.26;55.37
51043;BME280;37078;45.806;9.084;2022-09-09T01:50:51;98675.75;;;26.22;55.31
51043;BME280;37078;45.806;9.084;2022-09-09T01:53:18;98669.00;;;26.19;55.10
51043;BME280;37078;45.806;9.084;2022-09-09T02:06:55;98657.84;;;26.24;55.11
51043;BME280;37078;45.806;9.084;2022-09-09T02:09:24;98660.94;;;26.23;55.32
51043;BME280;37078;45.806;9.084;2022-09-09T02:11:52;98667.19;;;26.23;55.02
51043;BME280;37078;45.806;9.084;2022-09-09T02:14:29;98670.72;;;26.24;55.37
51043;BME280;37078;45.806;9.084;2022-09-09T02:17:03;98660.59;;;26.24;55.28
51043;BME280;37078;45.806;9.084;2022-09-09T02:19:37;98657.06;;;26.24;55.28
51043;BME280;37078;45.806;9.084;2022-09-09T02:22:04;98646.47;;;26.22;55.49
51043;BME280;37078;45.806;9.084;2022-09-09T02:24:32;98639.09;;;26.23;55.53
51043;BME280;37078;45.806;9.084;2022-09-09T02:27:00;98633.84;;;26.17;55.45
51043;BME280;37078;45.806;9.084;2022-09-09T02:29:31;98635.44;;;26.18;55.23
51043;BME280;37078;45.806;9.084;2022-09-09T02:32:01;98648.41;;;26.22;55.43
51043;BME280;37078;45.806;9.084;2022-09-09T02:34:31;98646.47;;;26.22;55.35
51043;BME280;37078;45.806;9.084;2022-09-09T02:36:59;98643.75;;;26.22;55.42
51043;BME280;37078;45.806;9.084;2022-09-09T02:39:26;98634.19;;;26.16;55.41
51043;BME280;37078;45.806;9.084;2022-09-09T02:41:51;98625.66;;;26.17;55.57
51043;BME280;37078;45.806;9.084;2022-09-09T02:44:18;98633.13;;;26.21;55.47
51043;BME280;37078;45.806;9.084;2022-09-09T02:52:20;98655.69;;;26.17;55.39
51043;BME280;37078;45.806;9.084;2022-09-09T02:54:55;98681.06;;;26.18;55.62
51043;BME280;37078;45.806;9.084;2022-09-09T02:57:26;98686.19;;;26.20;55.56
51043;BME280;37078;45.806;9.084;2022-09-09T02:59:53;98691.34;;;26.21;55.14
51043;BME280;37078;45.806;9.084;2022-09-09T03:02:22;98665.03;;;26.16;55.31
51043;BME280;37078;45.806;9.084;2022-09-09T03:04:47;98640.31;;;26.13;55.48
51043;BME280;37078;45.806;9.084;2022-09-09T03:07:16;98641.69;;;26.19;55.35
51043;BME280;37078;45.806;9.084;2022-09-09T03:09:42;98647.38;;;26.14;55.35
51043;BME280;37078;45.806;9.084;2022-09-09T03:12:08;98651.25;;;26.13;55.67
51043;BME280;37078;45.806;9.084;2022-09-09T03:14:33;98686.53;;;26.18;55.47
51043;BME280;37078;45.806;9.084;2022-09-09T03:16:58;98706.31;;;26.15;55.78
51043;BME280;37078;45.806;9.084;2022-09-09T03:19:26;98753.69;;;26.19;55.74
51043;BME280;37078;45.806;9.084;2022-09-09T03:21:53;98780.22;;;26.18;55.94
51043;BME280;37078;45.806;9.084;2022-09-09T03:24:18;98799.34;;;26.18;56.17
51043;BME280;37078;45.806;9.084;2022-09-09T03:26:44;98711.34;;;26.13;56.26
51043;BME280;37078;45.806;9.084;2022-09-09T03:29:10;98693.50;;;26.15;56.33
51043;BME280;37078;45.806;9.084;2022-09-09T03:31:37;98689.03;;;26.11;56.06
51043;BME280;37078;45.806;9.084;2022-09-09T03:34:03;98702.81;;;26.14;55.82
51043;BME280;37078;45.806;9.084;2022-09-09T03:36:28;98672.66;;;26.11;55.74
51043;BME280;37078;45.806;9.084;2022-09-09T03:38:54;98662.97;;;26.13;55.81
51043;BME280;37078;45.806;9.084;2022-09-09T03:41:24;98657.50;;;26.13;55.83
51043;BME280;37078;45.806;9.084;2022-09-09T03:43:50;98660.25;;;26.13;55.69
51043;BME280;37078;45.806;9.084;2022-09-09T03:46:15;98654.69;;;26.10;55.41
51043;BME280;37078;45.806;9.084;2022-09-09T03:48:41;98641.34;;;26.08;55.56
51043;BME280;37078;45.806;9.084;2022-09-09T03:51:06;98639.88;;;26.11;55.58
51043;BME280;37078;45.806;9.084;2022-09-09T03:53:32;98629.25;;;25.97;55.71
51043;BME280;37078;45.806;9.084;2022-09-09T03:55:58;98656.25;;;26.11;55.55
51043;BME280;37078;45.806;9.084;2022-09-09T03:58:25;98663.66;;;26.10;55.63
51043;BME280;37078;45.806;9.084;2022-09-09T04:03:20;98646.47;;;26.10;55.70
51043;BME280;37078;45.806;9.084;2022-09-09T04:05:48;98651.94;;;26.10;56.08
51043;BME280;37078;45.806;9.084;2022-09-09T04:08:14;98676.84;;;26.08;55.66
51043;BME280;37078;45.806;9.084;2022-09-09T04:10:39;98685.03;;;26.08;55.66
51043;BME280;37078;45.806;9.084;2022-09-09T04:13:05;98689.34;;;26.09;56.00
51043;BME280;37078;45.806;9.084;2022-09-09T04:15:30;98701.44;;;26.08;55.83
51043;BME280;37078;45.806;9.084;2022-09-09T04:17:56;98693.59;;;26.07;55.96
51043;BME280;37078;45.806;9.084;2022-09-09T04:20:21;98698.69;;;26.08;56.37
51043;BME280;37078;45.806;9.084;2022-09-09T04:22:47;98697.91;;;26.08;55.78
51043;BME280;37078;45.806;9.084;2022-09-09T04:25:13;98701.66;;;26.03;56.20
51043;BME280;37078;45.806;9.084;2022-09-09T04:27:38;98715.44;;;26.07;56.13
51043;BME280;37078;45.806;9.084;2022-09-09T04:30:04;98710.97;;;26.02;56.41
51043;BME280;37078;45.806;9.084;2022-09-09T04:32:32;98720.09;;;26.06;56.09
51043;BME280;37078;45.806;9.084;2022-09-09T04:34:57;98712.13;;;26.01;56.23
51043;BME280;37078;45.806;9.084;2022-09-09T04:37:23;98719.16;;;26.02;56.53
51043;BME280;37078;45.806;9.084;2022-09-09T04:39:50;98719.97;;;26.03;56.71
51043;BME280;37078;45.806;9.084;2022-09-09T04:42:15;98721.44;;;26.00;56.73
51043;BME280;37078;45.806;9.084;2022-09-09T04:44:43;98723.97;;;26.05;56.21
51043;BME280;37078;45.806;9.084;2022-09-09T04:47:09;98729.75;;;26.04;56.35
51043;BME280;37078;45.806;9.084;2022-09-09T04:49:34;98731.22;;;26.01;56.25
51043;BME280;37078;45.806;9.084;2022-09-09T04:52:01;98728.16;;;26.03;56.26
51043;BME280;37078;45.806;9.084;2022-09-09T04:54:26;98726.91;;;26.00;56.27
51043;BME280;37078;45.806;9.084;2022-09-09T04:56:53;98726.91;;;26.00;56.04
51043;BME280;37078;45.806;9.084;2022-09-09T04:59:18;98724.84;;;25.97;56.30
51043;BME280;37078;45.806;9.084;2022-09-09T05:01:44;98719.38;;;25.97;56.11
51043;BME280;37078;45.806;9.084;2022-09-09T05:04:09;98734.75;;;26.02;56.21
51043;BME280;37078;45.806;9.084;2022-09-09T05:06:35;98723.25;;;25.96;55.89
51043;BME280;37078;45.806;9.084;2022-09-09T05:09:01;98723.25;;;25.96;56.32
51043;BME280;37078;45.806;9.084;2022-09-09T05:11:29;98725.19;;;25.96;56.38
51043;BME280;37078;45.806;9.084;2022-09-09T05:13:55;98737.84;;;26.00;56.27
51043;BME280;37078;45.806;9.084;2022-09-09T05:16:22;98737.03;;;26.00;56.24
51043;BME280;37078;45.806;9.084;2022-09-09T05:18:48;98738.97;;;25.99;56.18
51043;BME280;37078;45.806;9.084;2022-09-09T05:21:16;98740.09;;;25.98;56.21
51043;BME280;37078;45.806;9.084;2022-09-09T05:23:42;98736.13;;;25.96;56.09
51043;BME280;37078;45.806;9.084;2022-09-09T05:26:12;98734.97;;;25.97;56.62
51043;BME280;37078;45.806;9.084;2022-09-09T05:28:38;98743.63;;;25.99;56.30
51043;BME280;37078;45.806;9.084;2022-09-09T05:31:06;98732.59;;;25.95;56.12
51043;BME280;37078;45.806;9.084;2022-09-09T05:33:34;98731.09;;;25.98;55.96
51043;BME280;37078;45.806;9.084;2022-09-09T05:36:02;98714.63;;;25.94;56.32
51043;BME280;37078;45.806;9.084;2022-09-09T05:38:30;98722.59;;;25.99;56.00
51043;BME280;37078;45.806;9.084;2022-09-09T05:40:56;98714.72;;;25.98;56.38
51043;BME280;37078;45.806;9.084;2022-09-09T05:43:22;98715.84;;;25.97;56.54
51043;BME280;37078;45.806;9.084;2022-09-09T05:45:48;98705.50;;;25.90;56.48
51043;BME280;37078;45.806;9.084;2022-09-09T05:48:23;98707.88;;;25.91;56.28
51043;BME280;37078;45.806;9.084;2022-09-09T05:50:53;98715.13;;;25.87;56.66
51043;BME280;37078;45.806;9.084;2022-09-09T05:53:19;98722.47;;;25.96;56.76
51043;BME280;37078;45.806;9.084;2022-09-09T05:55:45;98720.06;;;25.94;56.56
51043;BME280;37078;45.806;9.084;2022-09-09T05:58:10;98723.38;;;26.00;56.32
51043;BME280;37078;45.806;9.084;2022-09-09T06:00:36;98727.91;;;25.96;56.31
51043;BME280;37078;45.806;9.084;2022-09-09T06:03:02;98717.34;;;25.94;56.47
51043;BME280;37078;45.806;9.084;2022-09-09T06:05:29;98727.56;;;25.97;56.60
51043;BME280;37078;45.806;9.084;2022-09-09T06:07:54;98738.97;;;25.99;56.53
51043;BME280;37078;45.806;9.084;2022-09-09T06:10:20;98728.72;;;25.96;57.06
51043;BME280;37078;45.806;9.084;2022-09-09T06:12:45;98738.50;;;25.97;56.96
51043;BME280;37078;45.806;9.084;2022-09-09T06:15:11;98729.06;;;25.95;57.39
51043;BME280;37078;45.806;9.084;2022-09-09T06:17:36;98744.91;;;26.01;57.14
51043;BME280;37078;45.806;9.084;2022-09-09T06:20:02;98748.56;;;26.05;57.12
51043;BME280;37078;45.806;9.084;2022-09-09T06:22:27;98748.06;;;26.03;56.62
51043;BME280;37078;45.806;9.084;2022-09-09T06:24:53;98742.03;;;25.98;56.96
51043;BME280;37078;45.806;9.084;2022-09-09T06:27:18;98761.50;;;26.08;56.48
51043;BME280;37078;45.806;9.084;2022-09-09T06:29:44;98764.25;;;26.08;56.42
51043;BME280;37078;45.806;9.084;2022-09-09T06:32:09;98768.13;;;26.07;56.21
51043;BME280;37078;45.806;9.084;2022-09-09T06:34:34;98759.13;;;26.07;56.56
51043;BME280;37078;45.806;9.084;2022-09-09T06:37:02;98765.38;;;26.07;56.64
51043;BME280;37078;45.806;9.084;2022-09-09T06:39:27;98756.75;;;26.05;56.56
51043;BME280;37078;45.806;9.084;2022-09-09T06:41:52;98759.94;;;26.07;56.31
51043;BME280;37078;45.806;9.084;2022-09-09T06:44:18;98756.25;;;26.03;56.50
51043;BME280;37078;45.806;9.084;2022-09-09T06:46:44;98765.84;;;26.09;56.38
51043;BME280;37078;45.806;9.084;2022-09-09T06:49:12;98756.84;;;26.09;56.44
51043;BME280;37078;45.806;9.084;2022-09-09T06:51:38;98753.31;;;26.08;56.13
51043;BME280;37078;45.806;9.084;2022-09-09T06:54:08;98753.31;;;26.08;56.47
51043;BME280;37078;45.806;9.084;2022-09-09T06:56:37;98743.88;;;26.06;56.56
51043;BME280;37078;45.806;9.084;2022-09-09T06:59:06;98744.81;;;26.10;56.66
51043;BME280;37078;45.806;9.084;2022-09-09T07:01:38;98755.25;;;26.08;56.62
51043;BME280;37078;45.806;9.084;2022-09-09T07:04:06;98740.22;;;26.02;56.82
51043;BME280;37078;45.806;9.084;2022-09-09T07:06:38;98757.66;;;26.09;56.47
51043;BME280;37078;45.806;9.084;2022-09-09T07:09:09;98757.34;;;26.11;56.42
51043;BME280;37078;45.806;9.084;2022-09-09T07:11:41;98749.34;;;26.06;56.61
51043;BME280;37078;45.806;9.084;2022-09-09T07:14:08;98754.59;;;26.11;56.67
51043;BME280;37078;45.806;9.084;2022-09-09T07:16:34;98748.06;;;26.03;56.58
51043;BME280;37078;45.806;9.084;2022-09-09T07:19:02;98758.00;;;26.08;56.45
51043;BME280;37078;45.806;9.084;2022-09-09T07:21:30;98754.00;;;26.05;56.37
51043;BME280;37078;45.806;9.084;2022-09-09T07:23:56;98767.31;;;26.07;56.39
51043;BME280;37078;45.806;9.084;2022-09-09T07:26:27;98766.66;;;26.10;56.65
51043;BME280;37078;45.806;9.084;2022-09-09T07:28:52;98756.16;;;26.00;56.63
51043;BME280;37078;45.806;9.084;2022-09-09T07:31:24;98763.94;;;26.10;56.78
51043;BME280;37078;45.806;9.084;2022-09-09T07:33:49;98765.84;;;26.09;56.96
51043;BME280;37078;45.806;9.084;2022-09-09T07:36:32;98770.50;;;26.09;56.91
51043;BME280;37078;45.806;9.084;2022-09-09T07:39:00;98777.91;;;26.08;57.17
51043;BME280;37078;45.806;9.084;2022-09-09T07:41:29;98760.47;;;26.01;56.95
51043;BME280;37078;45.806;9.084;2022-09-09T07:43:56;98765.75;;;26.06;57.25
51043;BME280;37078;45.806;9.084;2022-09-09T07:46:23;98784.06;;;26.05;57.17
51043;BME280;37078;45.806;9.084;2022-09-09T07:48:57;98777.81;;;26.05;57.41
51043;BME280;37078;45.806;9.084;2022-09-09T07:51:29;98779.50;;;26.09;57.30
51043;BME280;37078;45.806;9.084;2022-09-09T07:54:00;98784.09;;;26.17;56.85
51043;BME280;37078;45.806;9.084;2022-09-09T07:56:27;98781.00;;;26.19;56.67
51043;BME280;37078;45.806;9.084;2022-09-09T07:58:55;98784.47;;;26.28;56.62
51043;BME280;37078;45.806;9.084;2022-09-09T08:01:26;98779.00;;;26.28;57.14
51043;BME280;37078;45.806;9.084;2022-09-09T08:04:00;98793.03;;;26.39;56.86
51043;BME280;37078;45.806;9.084;2022-09-09T08:06:28;98787.91;;;26.37;56.68
51043;BME280;37078;45.806;9.084;2022-09-09T08:08:54;98792.84;;;26.44;56.89
51043;BME280;37078;45.806;9.084;2022-09-09T08:11:20;98793.41;;;26.50;56.22
51043;BME280;37078;45.806;9.084;2022-09-09T08:13:48;98797.06;;;26.54;56.44
51043;BME280;37078;45.806;9.084;2022-09-09T08:16:17;98795.25;;;26.58;56.95
51043;BME280;37078;45.806;9.084;2022-09-09T08:18:42;98801.50;;;26.58;56.29
51043;BME280;37078;45.806;9.084;2022-09-09T08:21:12;98802.91;;;26.64;56.55
51043;BME280;37078;45.806;9.084;2022-09-09T08:23:42;98799.59;;;26.71;56.33
51043;BME280;37078;45.806;9.084;2022-09-09T08:26:15;98793.78;;;26.73;56.76
51043;BME280;37078;45.806;9.084;2022-09-09T08:28:41;98803.13;;;26.72;56.67
51043;BME280;37078;45.806;9.084;2022-09-09T08:31:16;98787.38;;;26.68;57.25
51043;BME280;37078;45.806;9.084;2022-09-09T08:33:43;98802.56;;;26.78;56.85
51043;BME280;37078;45.806;9.084;2022-09-09T08:36:13;98794.34;;;26.78;56.31
51043;BME280;37078;45.806;9.084;2022-09-09T08:38:40;98781.94;;;26.81;56.16
51043;BME280;37078;45.806;9.084;2022-09-09T08:43:51;98798.44;;;26.84;56.36
51043;BME280;37078;45.806;9.084;2022-09-09T08:49:28;98795.84;;;26.88;56.39
51043;BME280;37078;45.806;9.084;2022-09-09T08:51:56;98792.09;;;26.92;56.09
51043;BME280;37078;45.806;9.084;2022-09-09T08:54:23;98795.50;;;26.89;56.41
51043;BME280;37078;45.806;9.084;2022-09-09T08:56:48;98795.25;;;26.94;56.43
51043;BME280;37078;45.806;9.084;2022-09-09T08:59:17;98794.03;;;26.92;56.50
51043;BME280;37078;45.806;9.084;2022-09-09T09:04:56;98792.22;;;26.96;56.44
51043;BME280;37078;45.806;9.084;2022-09-09T09:07:37;98790.28;;;26.97;56.62
51043;BME280;37078;45.806;9.084;2022-09-09T09:12:43;98789.00;;;26.94;56.60
51043;BME280;37078;45.806;9.084;2022-09-09T09:15:21;98785.25;;;26.99;56.53
51043;BME280;37078;45.806;9.084;2022-09-09T09:17:48;98777.25;;;26.93;56.15
51043;BME280;37078;45.806;9.084;2022-09-09T09:20:15;98781.34;;;27.00;56.40
51043;BME280;37078;45.806;9.084;2022-09-09T09:22:48;98782.28;;;27.04;56.34
51043;BME280;37078;45.806;9.084;2022-09-09T09:25:22;98792.06;;;27.05;56.05
51043;BME280;37078;45.806;9.084;2022-09-09T09:30:40;98793.38;;;27.07;56.22
51043;BME280;37078;45.806;9.084;2022-09-09T09:33:31;98779.91;;;27.02;56.21
51043;BME280;37078;45.806;9.084;2022-09-09T09:35:59;98780.13;;;27.09;55.99
51043;BME280;37078;45.806;9.084;2022-09-09T09:38:27;98788.47;;;27.13;55.82
51043;BME280;37078;45.806;9.084;2022-09-09T09:40:57;98779.91;;;27.14;55.81
51043;BME280;37078;45.806;9.084;2022-09-09T09:43:29;98783.88;;;27.17;55.79
51043;BME280;37078;45.806;9.084;2022-09-09T09:45:56;98779.91;;;27.14;55.46
51043;BME280;37078;45.806;9.084;2022-09-09T09:48:26;98785.94;;;27.20;55.99
51043;BME280;37078;45.806;9.084;2022-09-09T09:51:09;98793.00;;;27.21;55.59
51043;BME280;37078;45.806;9.084;2022-09-09T09:53:38;98779.19;;;27.17;55.67
51043;BME280;37078;45.806;9.084;2022-09-09T09:56:06;98786.06;;;27.24;55.87
51043;BME280;37078;45.806;9.084;2022-09-09T10:01:02;98784.91;;;27.25;56.00
51043;BME280;37078;45.806;9.084;2022-09-09T10:03:30;98769.53;;;27.20;55.53
51043;BME280;37078;45.806;9.084;2022-09-09T10:05:56;98774.66;;;27.09;52.29
51043;BME280;37078;45.806;9.084;2022-09-09T10:08:23;98771.56;;;26.99;49.46
51043;BME280;37078;45.806;9.084;2022-09-09T10:13:34;98766.09;;;26.86;48.43
51043;BME280;37078;45.806;9.084;2022-09-09T10:19:01;98770.53;;;26.79;47.94
51043;BME280;37078;45.806;9.084;2022-09-09T10:24:17;98771.25;;;26.76;48.08
51043;BME280;37078;45.806;9.084;2022-09-09T10:32:16;98770.44;;;26.87;49.83
51043;BME280;37078;45.806;9.084;2022-09-09T10:35:08;98760.06;;;26.93;50.26
51043;BME280;37078;45.806;9.084;2022-09-09T10:40:42;98755.59;;;27.01;50.71
51043;BME280;37078;45.806;9.084;2022-09-09T10:51:35;98753.44;;;27.06;51.52
51043;BME280;37078;45.806;9.084;2022-09-09T10:56:35;98741.47;;;26.99;51.58
51043;BME280;37078;45.806;9.084;2022-09-09T10:59:06;98746.94;;;27.11;51.71
51043;BME280;37078;45.806;9.084;2022-09-09T11:01:40;98738.88;;;27.14;51.92
51043;BME280;37078;45.806;9.084;2022-09-09T11:04:17;98737.38;;;27.17;51.64
51043;BME280;37078;45.806;9.084;2022-09-09T11:06:50;98745.56;;;27.17;51.92
51043;BME280;37078;45.806;9.084;2022-09-09T11:09:21;98739.06;;;27.21;52.51
51043;BME280;37078;45.806;9.084;2022-09-09T11:11:53;98743.88;;;27.25;52.31
51043;BME280;37078;45.806;9.084;2022-09-09T11:16:57;98736.56;;;27.29;52.70
51043;BME280;37078;45.806;9.084;2022-09-09T11:19:40;98735.41;;;27.30;52.83
51043;BME280;37078;45.806;9.084;2022-09-09T11:24:46;98720.94;;;27.29;53.21
51043;BME280;37078;45.806;9.084;2022-09-09T11:27:26;98720.59;;;27.31;53.41
51043;BME280;37078;45.806;9.084;2022-09-09T11:40:34;98716.66;;;27.44;53.38
51043;BME280;37078;45.806;9.084;2022-09-09T11:43:12;98724.28;;;27.51;53.21
51043;BME280;37078;45.806;9.084;2022-09-09T11:45:41;98725.88;;;27.52;53.03
51043;BME280;37078;45.806;9.084;2022-09-09T11:48:32;98722.78;;;27.53;53.43
51043;BME280;37078;45.806;9.084;2022-09-09T11:53:29;98730.06;;;27.61;53.17
51043;BME280;37078;45.806;9.084;2022-09-09T11:58:26;98702.94;;;27.56;53.07
51043;BME280;37078;45.806;9.084;2022-09-09T12:00:54;98714.63;;;27.69;52.46
51043;BME280;37078;45.806;9.084;2022-09-09T12:03:35;98713.19;;;27.59;52.72
51043;BME280;37078;45.806;9.084;2022-09-09T12:06:33;98710.84;;;27.45;51.90
51043;BME280;37078;45.806;9.084;2022-09-09T12:09:12;98705.31;;;27.30;50.66
51043;BME280;37078;45.806;9.084;2022-09-09T12:11:40;98703.31;;;27.42;50.46
51043;BME280;37078;45.806;9.084;2022-09-09T12:14:23;98704.59;;;27.45;50.23
51043;BME280;37078;45.806;9.084;2022-09-09T12:17:19;98699.97;;;27.49;49.20
51043;BME280;37078;45.806;9.084;2022-09-09T12:19:46;98698.88;;;27.50;48.91
51043;BME280;37078;45.806;9.084;2022-09-09T12:22:32;98687.44;;;27.48;48.90
51043;BME280;37078;45.806;9.084;2022-09-09T12:25:41;98690.84;;;27.57;48.52
51043;BME280;37078;45.806;9.084;2022-09-09T12:28:27;98686.06;;;27.54;48.64
51043;BME280;37078;45.806;9.084;2022-09-09T12:31:17;98684.31;;;27.62;48.44
51043;BME280;37078;45.806;9.084;2022-09-09T12:33:45;98681.66;;;27.65;47.90
51043;BME280;37078;45.806;9.084;2022-09-09T12:36:31;98678.38;;;27.60;48.40
51043;BME280;37078;45.806;9.084;2022-09-09T12:38:59;98686.44;;;27.68;47.85
51043;BME280;37078;45.806;9.084;2022-09-09T12:41:35;98670.63;;;27.62;48.25
51043;BME280;37078;45.806;9.084;2022-09-09T12:44:06;98676.69;;;27.55;48.31
51043;BME280;37078;45.806;9.084;2022-09-09T12:46:38;98686.34;;;27.65;48.16
51043;BME280;37078;45.806;9.084;2022-09-09T12:49:05;98665.69;;;27.67;48.09
51043;BME280;37078;45.806;9.084;2022-09-09T12:51:46;98664.75;;;27.76;47.97
51043;BME280;37078;45.806;9.084;2022-09-09T12:54:13;98678.13;;;27.77;47.86
51043;BME280;37078;45.806;9.084;2022-09-09T12:56:39;98674.31;;;27.82;47.82
51043;BME280;37078;45.806;9.084;2022-09-09T12:59:04;98676.09;;;27.90;47.81
51043;BME280;37078;45.806;9.084;2022-09-09T13:01:32;98655.78;;;27.91;47.86
51043;BME280;37078;45.806;9.084;2022-09-09T13:04:00;98644.81;;;27.91;47.42
51043;BME280;37078;45.806;9.084;2022-09-09T13:06:28;98651.97;;;27.95;47.98
51043;BME280;37078;45.806;9.084;2022-09-09T13:08:56;98644.41;;;28.05;47.25
51043;BME280;37078;45.806;9.084;2022-09-09T13:11:27;98641.13;;;27.99;47.82
51043;BME280;37078;45.806;9.084;2022-09-09T13:13:56;98638.38;;;27.99;47.66
51043;BME280;37078;45.806;9.084;2022-09-09T13:16:26;98631.91;;;28.07;47.25
51043;BME280;37078;45.806;9.084;2022-09-09T13:19:00;98621.22;;;28.02;47.21
51043;BME280;37078;45.806;9.084;2022-09-09T13:21:37;98638.91;;;28.20;47.38
51043;BME280;37078;45.806;9.084;2022-09-09T13:24:57;98631.81;;;28.19;47.03
51043;BME280;37078;45.806;9.084;2022-09-09T13:27:02;98633.16;;;28.25;47.21
51043;BME280;37078;45.806;9.084;2022-09-09T13:29:28;98636.25;;;28.24;47.12
51043;BME280;37078;45.806;9.084;2022-09-09T13:32:04;98632.44;;;28.29;46.98
51043;BME280;37078;45.806;9.084;2022-09-09T13:34:34;98635.91;;;28.25;46.70
51043;BME280;37078;45.806;9.084;2022-09-09T13:37:05;98630.50;;;28.29;46.79
51043;BME280;37078;45.806;9.084;2022-09-09T13:39:36;98610.16;;;28.30;46.33
51043;BME280;37078;45.806;9.084;2022-09-09T13:42:03;98627.22;;;27.92;47.34
51043;BME280;37078;45.806;9.084;2022-09-09T13:44:36;98622.53;;;27.92;47.67
51043;BME280;37078;45.806;9.084;2022-09-09T13:47:05;98622.53;;;27.77;47.70
51043;BME280;37078;45.806;9.084;2022-09-09T13:49:32;98616.63;;;27.75;47.88
51043;BME280;37078;45.806;9.084;2022-09-09T13:52:12;98620.44;;;28.02;47.48
51043;BME280;37078;45.806;9.084;2022-09-09T13:54:39;98601.34;;;27.73;47.84
51043;BME280;37078;45.806;9.084;2022-09-09T13:57:05;98593.56;;;28.07;46.88
51043;BME280;37078;45.806;9.084;2022-09-09T13:59:31;98601.69;;;28.35;46.65
51043;BME280;37078;45.806;9.084;2022-09-09T14:01:57;98609.88;;;28.51;46.40
51043;BME280;37078;45.806;9.084;2022-09-09T14:04:23;98605.72;;;28.57;45.86
51043;BME280;37078;45.806;9.084;2022-09-09T14:06:49;98594.81;;;28.61;45.72
51043;BME280;37078;45.806;9.084;2022-09-09T14:09:17;98601.63;;;28.67;46.07
51043;BME280;37078;45.806;9.084;2022-09-09T14:11:44;98602.88;;;28.69;45.85
51043;BME280;37078;45.806;9.084;2022-09-09T14:14:13;98593.34;;;28.63;45.68
51043;BME280;37078;45.806;9.084;2022-09-09T14:16:38;98583.09;;;28.44;46.70
51043;BME280;37078;45.806;9.084;2022-09-09T14:19:04;98582.19;;;28.56;46.01
51043;BME280;37078;45.806;9.084;2022-09-09T14:21:29;98590.44;;;28.75;45.48
51043;BME280;37078;45.806;9.084;2022-09-09T14:23:55;98591.66;;;28.59;46.38
51043;BME280;37078;45.806;9.084;2022-09-09T14:26:23;98579.19;;;28.81;45.39
51043;BME280;37078;45.806;9.084;2022-09-09T14:28:49;98581.19;;;28.84;44.88
51043;BME280;37078;45.806;9.084;2022-09-09T14:31:15;98592.31;;;29.07;45.12
51043;BME280;37078;45.806;9.084;2022-09-09T14:33:43;98589.66;;;28.75;45.65
51043;BME280;37078;45.806;9.084;2022-09-09T14:36:09;98589.03;;;29.20;44.86
51043;BME280;37078;45.806;9.084;2022-09-09T14:38:36;98574.69;;;29.50;43.81
51043;BME280;37078;45.806;9.084;2022-09-09T14:41:06;98584.44;;;29.67;43.61
51043;BME280;37078;45.806;9.084;2022-09-09T14:43:31;98583.25;;;29.91;42.87
51043;BME280;37078;45.806;9.084;2022-09-09T14:46:13;98584.09;;;30.14;42.79
51043;BME280;37078;45.806;9.084;2022-09-09T14:48:39;98575.53;;;30.19;42.50
51043;BME280;37078;45.806;9.084;2022-09-09T14:51:12;98587.94;;;29.87;43.24
51043;BME280;37078;45.806;9.084;2022-09-09T14:53:39;98585.94;;;29.02;45.09
51043;BME280;37078;45.806;9.084;2022-09-09T14:56:09;98586.09;;;29.52;44.01
51043;BME280;37078;45.806;9.084;2022-09-09T14:58:35;98589.19;;;29.70;43.45
51043;BME280;37078;45.806;9.084;2022-09-09T15:01:06;98578.94;;;29.67;43.54
51043;BME280;37078;45.806;9.084;2022-09-09T15:03:32;98586.88;;;29.95;42.84
51043;BME280;37078;45.806;9.084;2022-09-09T15:05:57;98575.41;;;30.12;42.66
51043;BME280;37078;45.806;9.084;2022-09-09T15:08:25;98586.47;;;30.16;42.74